createdAt,value
2018-01-12T00:00:50.772Z,85.59
2018-01-12T00:01:50.545Z,85.87
2018-01-12T00:02:50.548Z,85.87
2018-01-12T00:03:50.565Z,86.35
2018-01-12T00:04:50.831Z,86.16
2018-01-12T00:05:50.846Z,86.25
2018-01-12T00:06:50.605Z,85.87
2018-01-12T00:07:50.872Z,85.78
2018-01-12T00:08:50.636Z,85.68
2018-01-12T00:09:50.910Z,85.59
2018-01-12T00:10:50.669Z,86.25
2018-01-12T00:11:50.935Z,85.97
2018-01-12T00:12:50.699Z,85.87
2018-01-12T00:13:50.970Z,86.54
2018-01-12T00:14:50.981Z,86.44
2018-01-12T00:15:51.001Z,86.16
2018-01-12T00:16:51.012Z,86.54
2018-01-12T00:17:51.034Z,86.63
2018-01-12T00:18:50.788Z,85.78
2018-01-12T00:19:51.053Z,85.97
2018-01-12T00:20:51.067Z,85.97
2018-01-12T00:21:50.829Z,85.78
2018-01-12T00:22:51.100Z,85.87
2018-01-12T00:23:50.860Z,85.4
2018-01-12T00:24:51.128Z,85.4
2018-01-12T00:25:51.146Z,85.49
2018-01-12T00:26:50.906Z,85.78
2018-01-12T00:27:50.920Z,85.59
2018-01-12T00:28:51.187Z,85.78
2018-01-12T00:29:51.200Z,85.97
2018-01-12T00:30:51.262Z,85.97
2018-01-12T00:31:50.981Z,86.16
2018-01-12T00:32:50.994Z,86.44
2018-01-12T00:33:51.011Z,85.78
2018-01-12T00:34:51.277Z,85.87
2018-01-12T00:35:51.292Z,85.3
2018-01-12T00:36:51.308Z,85.97
2018-01-12T00:37:51.325Z,86.16
2018-01-12T00:38:51.338Z,86.07
2018-01-12T00:39:51.352Z,85.59
2018-01-12T00:40:51.389Z,85.97
2018-01-12T00:41:51.380Z,85.97
2018-01-12T00:42:51.395Z,86.44
2018-01-12T00:43:51.416Z,85.87
2018-01-12T00:44:51.428Z,86.44
2018-01-12T00:45:51.439Z,86.25
2018-01-12T00:46:51.201Z,86.16
2018-01-12T00:47:51.216Z,86.44
2018-01-12T00:48:51.487Z,86.25
2018-01-12T00:49:51.500Z,86.54
2018-01-12T00:50:51.511Z,86.07
2018-01-12T00:51:51.326Z,86.44
2018-01-12T00:52:51.292Z,85.78
2018-01-12T00:53:51.306Z,85.78
2018-01-12T00:54:51.573Z,85.68
2018-01-12T00:55:51.589Z,85.59
2018-01-12T00:56:51.351Z,85.97
2018-01-12T00:57:51.618Z,85.68
2018-01-12T00:58:51.633Z,85.68
2018-01-12T00:59:51.398Z,85.78
2018-01-12T01:00:51.726Z,85.97
2018-01-12T01:01:51.675Z,85.78
2018-01-12T01:02:51.692Z,85.78
2018-01-12T01:03:51.456Z,86.07
2018-01-12T01:04:51.469Z,85.59
2018-01-12T01:05:51.483Z,85.87
2018-01-12T01:06:51.804Z,85.4
2018-01-12T01:07:51.519Z,85.11
2018-01-12T01:08:51.781Z,85.3
2018-01-12T01:09:51.802Z,85.4
2018-01-12T01:10:51.813Z,85.21
2018-01-12T01:11:51.931Z,85.4
2018-01-12T01:12:51.587Z,86.25
2018-01-12T01:13:51.858Z,85.59
2018-01-12T01:14:51.868Z,85.87
2018-01-12T01:15:51.881Z,85.68
2018-01-12T01:16:51.901Z,86.07
2018-01-12T01:17:51.914Z,85.87
2018-01-12T01:18:51.934Z,86.07
2018-01-12T01:19:51.945Z,85.68
2018-01-12T01:20:51.709Z,85.97
2018-01-12T01:21:52.024Z,85.87
2018-01-12T01:22:51.991Z,85.78
2018-01-12T01:23:51.751Z,85.87
2018-01-12T01:24:51.768Z,85.78
2018-01-12T01:25:52.033Z,85.97
2018-01-12T01:26:51.796Z,85.59
2018-01-12T01:27:52.062Z,85.87
2018-01-12T01:28:52.082Z,85.97
2018-01-12T01:29:51.848Z,85.59
2018-01-12T01:30:51.853Z,85.68
2018-01-12T01:31:52.153Z,86.07
2018-01-12T01:32:52.139Z,85.49
2018-01-12T01:33:51.898Z,85.68
2018-01-12T01:34:52.165Z,84.92
2018-01-12T01:35:52.182Z,84.92
2018-01-12T01:36:52.344Z,84.92
2018-01-12T01:37:51.958Z,85.49
2018-01-12T01:38:52.232Z,84.92
2018-01-12T01:39:52.242Z,85.02
2018-01-12T01:40:52.258Z,85.11
2018-01-12T01:41:52.119Z,85.02
2018-01-12T01:42:52.288Z,85.02
2018-01-12T01:43:52.303Z,84.83
2018-01-12T01:44:52.317Z,85.02
2018-01-12T01:45:52.334Z,85.11
2018-01-12T01:46:52.094Z,85.02
2018-01-12T01:47:52.360Z,84.64
2018-01-12T01:48:52.125Z,84.55
2018-01-12T01:49:52.137Z,84.26
2018-01-12T01:50:52.407Z,84.3
2018-01-12T01:51:52.268Z,83.83
2018-01-12T01:52:52.433Z,83.59
2018-01-12T01:53:52.451Z,84.45
2018-01-12T01:54:52.466Z,84.36
2018-01-12T01:55:52.481Z,84.17
2018-01-12T01:56:52.243Z,84.45
2018-01-12T01:57:52.257Z,84.36
2018-01-12T01:58:52.527Z,84.4
2018-01-12T01:59:52.539Z,84.83
2018-01-12T02:00:52.570Z,84.17
2018-01-12T02:01:52.568Z,84.17
2018-01-12T02:02:52.587Z,84.17
2018-01-12T02:03:52.608Z,84.21
2018-01-12T02:04:52.361Z,84.21
2018-01-12T02:05:52.642Z,83.83
2018-01-12T02:06:52.439Z,83.36
2018-01-12T02:07:52.657Z,83.92
2018-01-12T02:08:52.422Z,83.45
2018-01-12T02:09:52.686Z,83.54
2018-01-12T02:10:52.450Z,83.92
2018-01-12T02:11:52.716Z,84.45
2018-01-12T02:12:52.756Z,84.36
2018-01-12T02:13:52.495Z,84.83
2018-01-12T02:14:52.761Z,84.92
2018-01-12T02:15:52.527Z,84.74
2018-01-12T02:16:52.796Z,85.02
2018-01-12T02:17:52.808Z,84.92
2018-01-12T02:18:52.821Z,84.64
2018-01-12T02:19:52.837Z,84.74
2018-01-12T02:20:52.619Z,85.02
2018-01-12T02:21:52.663Z,84.92
2018-01-12T02:22:52.884Z,85.02
2018-01-12T02:23:52.897Z,85.11
2018-01-12T02:24:52.910Z,85.02
2018-01-12T02:25:52.923Z,85.11
2018-01-12T02:26:52.685Z,84.74
2018-01-12T02:27:52.957Z,85.11
2018-01-12T02:28:53.029Z,84.83
2018-01-12T02:29:52.729Z,85.02
2018-01-12T02:30:53.000Z,85.11
2018-01-12T02:31:53.015Z,84.74
2018-01-12T02:32:52.776Z,85.02
2018-01-12T02:33:52.790Z,85.02
2018-01-12T02:34:52.803Z,84.36
2018-01-12T02:35:53.069Z,84.17
2018-01-12T02:36:53.087Z,84.36
2018-01-12T02:37:53.156Z,84.36
2018-01-12T02:38:53.113Z,84.17
2018-01-12T02:39:53.129Z,84.26
2018-01-12T02:40:53.146Z,84.36
2018-01-12T02:41:53.176Z,84.83
2018-01-12T02:42:53.022Z,84.36
2018-01-12T02:43:53.189Z,84.36
2018-01-12T02:44:53.204Z,84.64
2018-01-12T02:45:53.217Z,85.21
2018-01-12T02:46:53.231Z,84.92
2018-01-12T02:47:53.260Z,84.64
2018-01-12T02:48:53.274Z,84.07
2018-01-12T02:49:53.274Z,84.45
2018-01-12T02:50:53.291Z,84.26
2018-01-12T02:51:53.313Z,83.97
2018-01-12T02:52:53.117Z,83.69
2018-01-12T02:53:53.082Z,84.17
2018-01-12T02:54:53.348Z,84.36
2018-01-12T02:55:53.365Z,84.36
2018-01-12T02:56:53.130Z,84.55
2018-01-12T02:57:53.446Z,84.64
2018-01-12T02:58:53.422Z,84.17
2018-01-12T02:59:53.173Z,84.55
2018-01-12T03:00:53.439Z,84.26
2018-01-12T03:01:53.459Z,83.97
2018-01-12T03:02:53.471Z,83.78
2018-01-12T03:03:53.485Z,83.03
2018-01-12T03:04:53.244Z,83.26
2018-01-12T03:05:53.514Z,83.31
2018-01-12T03:06:53.528Z,83.16
2018-01-12T03:07:53.541Z,83.59
2018-01-12T03:08:53.556Z,83.16
2018-01-12T03:09:53.572Z,83.16
2018-01-12T03:10:53.590Z,83.07
2018-01-12T03:11:53.350Z,82.88
2018-01-12T03:12:53.618Z,82.88
2018-01-12T03:13:53.636Z,83.31
2018-01-12T03:14:53.647Z,83.31
2018-01-12T03:15:53.660Z,83.31
2018-01-12T03:16:53.679Z,83.64
2018-01-12T03:17:53.459Z,83.54
2018-01-12T03:18:53.707Z,83.45
2018-01-12T03:19:53.472Z,83.07
2018-01-12T03:20:53.487Z,83.26
2018-01-12T03:21:53.500Z,84.26
2018-01-12T03:22:53.515Z,84.45
2018-01-12T03:23:53.783Z,84.36
2018-01-12T03:24:53.547Z,84.26
2018-01-12T03:25:53.560Z,84.11
2018-01-12T03:26:53.828Z,83.4
2018-01-12T03:27:53.844Z,83.5
2018-01-12T03:28:53.859Z,83.78
2018-01-12T03:29:53.620Z,84.36
2018-01-12T03:30:53.893Z,84.17
2018-01-12T03:31:53.904Z,83.5
2018-01-12T03:32:53.916Z,83.31
2018-01-12T03:33:53.679Z,83.59
2018-01-12T03:34:53.958Z,83.69
2018-01-12T03:35:53.957Z,84.26
2018-01-12T03:36:53.722Z,83.69
2018-01-12T03:37:53.986Z,83.97
2018-01-12T03:38:54.041Z,84.26
2018-01-12T03:39:53.769Z,83.78
2018-01-12T03:40:54.034Z,84.26
2018-01-12T03:41:53.803Z,84.07
2018-01-12T03:42:54.067Z,84.45
2018-01-12T03:43:54.082Z,84.64
2018-01-12T03:44:53.842Z,84.55
2018-01-12T03:45:54.108Z,84.17
2018-01-12T03:46:53.872Z,84.36
2018-01-12T03:47:54.143Z,83.4
2018-01-12T03:48:54.155Z,83.88
2018-01-12T03:49:54.178Z,83.88
2018-01-12T03:50:53.930Z,84.36
2018-01-12T03:51:54.203Z,84.36
2018-01-12T03:52:54.212Z,84.07
2018-01-12T03:53:54.231Z,83.88
2018-01-12T03:54:54.244Z,83.97
2018-01-12T03:55:54.262Z,83.88
2018-01-12T03:56:54.272Z,83.69
2018-01-12T03:57:54.291Z,83.5
2018-01-12T03:58:54.300Z,83.78
2018-01-12T03:59:54.318Z,83.03
2018-01-12T04:00:54.333Z,83.59
2018-01-12T04:01:54.361Z,83.5
2018-01-12T04:02:54.358Z,83.69
2018-01-12T04:03:54.382Z,83.31
2018-01-12T04:04:54.139Z,83.88
2018-01-12T04:05:54.405Z,83.88
2018-01-12T04:06:54.426Z,84.36
2018-01-12T04:07:54.440Z,84.26
2018-01-12T04:08:54.248Z,84.78
2018-01-12T04:09:54.466Z,84.98
2018-01-12T04:10:54.224Z,85.36
2018-01-12T04:11:54.495Z,84.78
2018-01-12T04:12:54.507Z,84.88
2018-01-12T04:13:54.520Z,84.92
2018-01-12T04:14:54.537Z,84.31
2018-01-12T04:15:54.298Z,84.17
2018-01-12T04:16:54.314Z,84.36
2018-01-12T04:17:54.326Z,84.17
2018-01-12T04:18:54.593Z,84.36
2018-01-12T04:19:54.354Z,84.17
2018-01-12T04:20:54.621Z,83.97
2018-01-12T04:21:54.634Z,83.59
2018-01-12T04:22:54.653Z,83.5
2018-01-12T04:23:54.415Z,83.5
2018-01-12T04:24:54.730Z,83.78
2018-01-12T04:25:54.447Z,83.88
2018-01-12T04:26:54.464Z,83.59
2018-01-12T04:27:54.474Z,84.36
2018-01-12T04:28:54.487Z,83.78
2018-01-12T04:29:54.553Z,84.36
2018-01-12T04:30:54.776Z,83.69
2018-01-12T04:31:54.782Z,83.69
2018-01-12T04:32:54.804Z,83.78
2018-01-12T04:33:54.816Z,83.03
2018-01-12T04:34:54.829Z,83.22
2018-01-12T04:35:54.590Z,83.12
2018-01-12T04:36:54.604Z,83.22
2018-01-12T04:37:54.870Z,83.69
2018-01-12T04:38:54.640Z,83.69
2018-01-12T04:39:54.902Z,83.4
2018-01-12T04:40:54.668Z,83.5
2018-01-12T04:41:54.680Z,83.5
2018-01-12T04:42:54.945Z,83.03
2018-01-12T04:43:54.967Z,83.88
2018-01-12T04:44:55.019Z,83.12
2018-01-12T04:45:54.734Z,83.22
2018-01-12T04:46:55.001Z,83.31
2018-01-12T04:47:54.764Z,83.22
2018-01-12T04:48:55.032Z,83.12
2018-01-12T04:49:55.046Z,83.5
2018-01-12T04:50:54.809Z,83.88
2018-01-12T04:51:55.078Z,83.59
2018-01-12T04:52:54.842Z,84.07
2018-01-12T04:53:55.109Z,83.31
2018-01-12T04:54:55.125Z,83.03
2018-01-12T04:55:55.140Z,82.84
2018-01-12T04:56:54.906Z,82.65
2018-01-12T04:57:54.921Z,82.74
2018-01-12T04:58:55.184Z,82.65
2018-01-12T04:59:55.353Z,82.17
2018-01-12T05:00:55.217Z,82.27
2018-01-12T05:01:54.980Z,82.27
2018-01-12T05:02:54.994Z,82.27
2018-01-12T05:03:55.025Z,81.88
2018-01-12T05:04:55.277Z,82.27
2018-01-12T05:05:55.290Z,81.32
2018-01-12T05:06:55.306Z,82.12
2018-01-12T05:07:55.323Z,81.74
2018-01-12T05:08:55.082Z,81.26
2018-01-12T05:09:55.097Z,81.26
2018-01-12T05:10:55.367Z,81.26
2018-01-12T05:11:55.384Z,81.26
2018-01-12T05:12:55.140Z,81.26
2018-01-12T05:13:55.154Z,81.36
2018-01-12T05:14:55.480Z,81.07
2018-01-12T05:15:55.435Z,81.41
2018-01-12T05:16:55.451Z,81.36
2018-01-12T05:17:55.216Z,81.26
2018-01-12T05:18:55.486Z,81.26
2018-01-12T05:19:55.498Z,81.07
2018-01-12T05:20:55.259Z,81.45
2018-01-12T05:21:55.599Z,80.98
2018-01-12T05:22:55.548Z,81.07
2018-01-12T05:23:55.561Z,81.07
2018-01-12T05:24:55.576Z,81.04
2018-01-12T05:25:55.337Z,80.94
2018-01-12T05:26:55.604Z,81.07
2018-01-12T05:27:55.368Z,81.07
2018-01-12T05:28:55.637Z,80.79
2018-01-12T05:29:55.706Z,80.88
2018-01-12T05:30:55.411Z,80.88
2018-01-12T05:31:55.682Z,81.26
2018-01-12T05:32:55.698Z,81.23
2018-01-12T05:33:55.714Z,81.07
2018-01-12T05:34:55.484Z,81.45
2018-01-12T05:35:55.740Z,81.17
2018-01-12T05:36:55.505Z,81.07
2018-01-12T05:37:55.824Z,81.17
2018-01-12T05:38:55.795Z,80.6
2018-01-12T05:39:55.549Z,81.17
2018-01-12T05:40:55.821Z,80.98
2018-01-12T05:41:55.828Z,81.23
2018-01-12T05:42:55.598Z,81.32
2018-01-12T05:43:55.607Z,81.23
2018-01-12T05:44:55.924Z,81.51
2018-01-12T05:45:55.889Z,82.17
2018-01-12T05:46:55.903Z,81.88
2018-01-12T05:47:55.919Z,82.36
2018-01-12T05:48:55.681Z,82.08
2018-01-12T05:49:55.698Z,82.55
2018-01-12T05:50:55.964Z,82.46
2018-01-12T05:51:55.989Z,82.36
2018-01-12T05:52:56.005Z,82.27
2018-01-12T05:53:56.014Z,81.88
2018-01-12T05:54:55.877Z,81.79
2018-01-12T05:55:55.789Z,81.98
2018-01-12T05:56:55.810Z,81.88
2018-01-12T05:57:55.820Z,82.27
2018-01-12T05:58:55.838Z,81.84
2018-01-12T05:59:56.153Z,82.08
2018-01-12T06:00:55.864Z,82.27
2018-01-12T06:01:55.881Z,82.55
2018-01-12T06:02:56.147Z,82.27
2018-01-12T06:03:56.169Z,82.27
2018-01-12T06:04:56.279Z,81.88
2018-01-12T06:05:56.195Z,81.98
2018-01-12T06:06:56.206Z,82.27
2018-01-12T06:07:55.970Z,81.98
2018-01-12T06:08:56.239Z,81.88
2018-01-12T06:09:56.253Z,81.88
2018-01-12T06:10:56.270Z,82.08
2018-01-12T06:11:56.286Z,81.98
2018-01-12T06:12:56.064Z,81.98
2018-01-12T06:13:56.316Z,81.79
2018-01-12T06:14:56.478Z,82.65
2018-01-12T06:15:56.343Z,82.65
2018-01-12T06:16:56.388Z,82.46
2018-01-12T06:17:56.380Z,83.22
2018-01-12T06:18:56.142Z,83.12
2018-01-12T06:19:56.403Z,82.55
2018-01-12T06:20:56.423Z,82.74
2018-01-12T06:21:56.181Z,82.65
2018-01-12T06:22:56.198Z,82.36
2018-01-12T06:23:56.211Z,81.88
2018-01-12T06:24:56.479Z,82.55
2018-01-12T06:25:56.490Z,83.12
2018-01-12T06:26:56.505Z,83.84
2018-01-12T06:27:56.521Z,83.5
2018-01-12T06:28:56.291Z,83.74
2018-01-12T06:29:56.554Z,84.31
2018-01-12T06:30:56.571Z,84.31
2018-01-12T06:31:56.333Z,84.69
2018-01-12T06:32:56.597Z,85.17
2018-01-12T06:33:56.613Z,84.59
2018-01-12T06:34:56.385Z,84.22
2018-01-12T06:35:56.643Z,83.55
2018-01-12T06:36:56.660Z,84.12
2018-01-12T06:37:56.671Z,84.69
2018-01-12T06:38:56.687Z,84.98
2018-01-12T06:39:56.701Z,84.03
2018-01-12T06:40:56.722Z,83.55
2018-01-12T06:41:56.736Z,83.69
2018-01-12T06:42:56.494Z,83.55
2018-01-12T06:43:56.758Z,83.46
2018-01-12T06:44:56.520Z,84.03
2018-01-12T06:45:56.788Z,83.65
2018-01-12T06:46:56.808Z,83.84
2018-01-12T06:47:56.824Z,83.55
2018-01-12T06:48:56.834Z,83.46
2018-01-12T06:49:56.848Z,83.08
2018-01-12T06:50:56.862Z,83.36
2018-01-12T06:51:56.978Z,83.17
2018-01-12T06:52:56.641Z,82.98
2018-01-12T06:53:56.910Z,82.84
2018-01-12T06:54:56.965Z,82.84
2018-01-12T06:55:56.936Z,82.46
2018-01-12T06:56:56.698Z,82.84
2018-01-12T06:57:56.714Z,82.17
2018-01-12T06:58:56.762Z,82.17
2018-01-12T06:59:56.994Z,82.17
2018-01-12T07:00:57.012Z,82.17
2018-01-12T07:01:57.077Z,81.88
2018-01-12T07:02:57.045Z,81.88
2018-01-12T07:03:57.056Z,81.6
2018-01-12T07:04:57.071Z,81.32
2018-01-12T07:05:57.082Z,81.32
2018-01-12T07:06:56.945Z,81.13
2018-01-12T07:07:57.114Z,80.94
2018-01-12T07:08:56.878Z,81.04
2018-01-12T07:09:57.141Z,81.23
2018-01-12T07:10:56.904Z,82.17
2018-01-12T07:11:57.170Z,81.66
2018-01-12T07:12:57.185Z,81.75
2018-01-12T07:13:57.200Z,82.42
2018-01-12T07:14:56.963Z,82.79
2018-01-12T07:15:57.233Z,81.7
2018-01-12T07:16:57.300Z,82.27
2018-01-12T07:17:57.259Z,82.27
2018-01-12T07:18:57.275Z,82.6
2018-01-12T07:19:57.303Z,82.51
2018-01-12T07:20:57.050Z,81.94
2018-01-12T07:21:57.319Z,82.23
2018-01-12T07:22:57.334Z,82.27
2018-01-12T07:23:57.351Z,81.85
2018-01-12T07:24:57.112Z,81.85
2018-01-12T07:25:57.127Z,82.13
2018-01-12T07:26:57.393Z,82.13
2018-01-12T07:27:57.406Z,82.42
2018-01-12T07:28:57.424Z,82.23
2018-01-12T07:29:57.440Z,81.66
2018-01-12T07:30:57.452Z,82.08
2018-01-12T07:31:57.364Z,81.41
2018-01-12T07:32:57.452Z,81.23
2018-01-12T07:33:57.499Z,81.04
2018-01-12T07:34:57.258Z,81.23
2018-01-12T07:35:57.522Z,80.94
2018-01-12T07:36:57.288Z,80.75
2018-01-12T07:37:57.587Z,80.65
2018-01-12T07:38:57.569Z,80.65
2018-01-12T07:39:57.589Z,80.84
2018-01-12T07:40:57.601Z,80.18
2018-01-12T07:41:57.614Z,80.46
2018-01-12T07:42:57.377Z,80.27
2018-01-12T07:43:57.393Z,79.71
2018-01-12T07:44:57.659Z,79.71
2018-01-12T07:45:57.673Z,79.9
2018-01-12T07:46:57.585Z,79.61
2018-01-12T07:47:57.453Z,79.61
2018-01-12T07:48:57.728Z,79.36
2018-01-12T07:49:57.736Z,79.36
2018-01-12T07:50:57.747Z,79.65
2018-01-12T07:51:57.509Z,79.9
2018-01-12T07:52:57.525Z,80.08
2018-01-12T07:53:57.539Z,80.56
2018-01-12T07:54:57.557Z,80.65
2018-01-12T07:55:57.826Z,80.65
2018-01-12T07:56:57.839Z,80.65
2018-01-12T07:57:57.603Z,80.27
2018-01-12T07:58:57.873Z,80.75
2018-01-12T07:59:57.632Z,80.84
2018-01-12T08:00:57.901Z,80.37
2018-01-12T08:01:57.720Z,80.22
2018-01-12T08:02:57.929Z,80.41
2018-01-12T08:03:57.939Z,79.74
2018-01-12T08:04:57.709Z,79.65
2018-01-12T08:05:57.976Z,79.84
2018-01-12T08:06:57.788Z,79.27
2018-01-12T08:07:58.005Z,79.27
2018-01-12T08:08:57.770Z,79.17
2018-01-12T08:09:57.786Z,79.46
2018-01-12T08:10:58.050Z,79.55
2018-01-12T08:11:58.119Z,79.46
2018-01-12T08:12:58.082Z,79.27
2018-01-12T08:13:57.844Z,79.55
2018-01-12T08:14:58.111Z,79.65
2018-01-12T08:15:58.127Z,79.55
2018-01-12T08:16:57.896Z,79.74
2018-01-12T08:17:58.159Z,79.74
2018-01-12T08:18:58.178Z,80.08
2018-01-12T08:19:58.188Z,81.04
2018-01-12T08:20:58.008Z,80.37
2018-01-12T08:21:58.018Z,80.46
2018-01-12T08:22:58.237Z,80.37
2018-01-12T08:23:58.277Z,80.51
2018-01-12T08:24:58.266Z,80.41
2018-01-12T08:25:58.279Z,80.51
2018-01-12T08:26:58.044Z,80.03
2018-01-12T08:27:58.313Z,79.55
2018-01-12T08:28:58.330Z,79.65
2018-01-12T08:29:58.343Z,79.46
2018-01-12T08:30:58.371Z,79.36
2018-01-12T08:31:58.136Z,79.36
2018-01-12T08:32:58.139Z,78.8
2018-01-12T08:33:58.406Z,78.51
2018-01-12T08:34:58.168Z,78.64
2018-01-12T08:35:58.434Z,78.13
2018-01-12T08:36:58.498Z,77.7
2018-01-12T08:37:58.474Z,77.89
2018-01-12T08:38:58.484Z,77.98
2018-01-12T08:39:58.247Z,78.08
2018-01-12T08:40:58.568Z,77.89
2018-01-12T08:41:58.278Z,77.51
2018-01-12T08:42:58.541Z,78.03
2018-01-12T08:43:58.559Z,77.94
2018-01-12T08:44:58.577Z,77.47
2018-01-12T08:45:58.592Z,77.51
2018-01-12T08:46:58.607Z,77.75
2018-01-12T08:47:58.624Z,78.13
2018-01-12T08:48:58.641Z,77.75
2018-01-12T08:49:58.655Z,77.84
2018-01-12T08:50:58.671Z,78.8
2018-01-12T08:51:58.683Z,77.66
2018-01-12T08:52:58.448Z,77.56
2018-01-12T08:53:58.487Z,77.75
2018-01-12T08:54:58.736Z,77.94
2018-01-12T08:55:58.499Z,77.84
2018-01-12T08:56:58.763Z,77.94
2018-01-12T08:57:58.787Z,77.94
2018-01-12T08:58:58.795Z,77.75
2018-01-12T08:59:58.874Z,78.03
2018-01-12T09:00:58.575Z,78.13
2018-01-12T09:01:58.593Z,77.37
2018-01-12T09:02:58.860Z,77.37
2018-01-12T09:03:58.623Z,77.18
2018-01-12T09:04:58.890Z,77.28
2018-01-12T09:05:58.905Z,77.12
2018-01-12T09:06:58.669Z,76.56
2018-01-12T09:07:58.938Z,76.65
2018-01-12T09:08:58.701Z,76.46
2018-01-12T09:09:58.968Z,77.28
2018-01-12T09:10:58.983Z,77.18
2018-01-12T09:11:59.000Z,77.75
2018-01-12T09:12:59.020Z,77.75
2018-01-12T09:13:58.781Z,77.28
2018-01-12T09:14:59.056Z,77.6
2018-01-12T09:15:59.063Z,77.22
2018-01-12T09:16:58.827Z,77.94
2018-01-12T09:17:59.093Z,77.94
2018-01-12T09:18:58.860Z,77.84
2018-01-12T09:19:59.127Z,77.56
2018-01-12T09:20:59.145Z,77.47
2018-01-12T09:21:59.157Z,76.84
2018-01-12T09:22:59.177Z,77.51
2018-01-12T09:23:59.193Z,77.22
2018-01-12T09:24:59.208Z,77.6
2018-01-12T09:25:58.972Z,77.12
2018-01-12T09:26:58.989Z,77.31
2018-01-12T09:27:59.004Z,77.22
2018-01-12T09:28:59.273Z,77.12
2018-01-12T09:29:59.036Z,76.56
2018-01-12T09:30:59.310Z,76.27
2018-01-12T09:31:59.324Z,75.7
2018-01-12T09:32:59.084Z,75.04
2018-01-12T09:33:59.099Z,75.04
2018-01-12T09:34:59.367Z,74.69
2018-01-12T09:35:59.384Z,74.22
2018-01-12T09:36:59.149Z,74.66
2018-01-12T09:37:59.416Z,75.51
2018-01-12T09:38:59.442Z,75.51
2018-01-12T09:39:59.447Z,75.89
2018-01-12T09:40:59.467Z,76.08
2018-01-12T09:41:59.481Z,76.08
2018-01-12T09:42:59.246Z,75.89
2018-01-12T09:43:59.262Z,75.79
2018-01-12T09:44:59.530Z,75.42
2018-01-12T09:45:59.548Z,75.6
2018-01-12T09:46:59.563Z,74.85
2018-01-12T09:47:59.580Z,74.47
2018-01-12T09:48:59.594Z,74.47
2018-01-12T09:49:59.610Z,74.27
2018-01-12T09:50:59.628Z,74.47
2018-01-12T09:51:59.389Z,74.85
2018-01-12T09:52:59.660Z,75.04
2018-01-12T09:53:59.676Z,75.23
2018-01-12T09:54:59.695Z,75.13
2018-01-12T09:55:59.710Z,75.89
2018-01-12T09:56:59.470Z,75.51
2018-01-12T09:57:59.738Z,75.7
2018-01-12T09:58:59.761Z,75.04
2018-01-12T09:59:59.546Z,74.47
2018-01-12T10:00:59.786Z,74.47
2018-01-12T10:01:59.553Z,74.27
2018-01-12T10:02:59.820Z,74.75
2018-01-12T10:03:59.838Z,74.47
2018-01-12T10:04:59.602Z,74.47
2018-01-12T10:05:59.867Z,74.37
2018-01-12T10:06:59.634Z,74.27
2018-01-12T10:07:59.649Z,74.27
2018-01-12T10:08:59.918Z,74.27
2018-01-12T10:09:59.936Z,73.52
2018-01-12T10:10:59.948Z,73.18
2018-01-12T10:11:59.971Z,72.7
2018-01-12T10:12:59.985Z,72.7
2018-01-12T10:13:59.999Z,71.94
2018-01-12T10:15:00.021Z,72.13
2018-01-12T10:16:00.033Z,71.94
2018-01-12T10:17:00.049Z,72.51
2018-01-12T10:17:59.813Z,71.84
2018-01-12T10:18:59.829Z,72.03
2018-01-12T10:19:59.848Z,72.79
2018-01-12T10:21:00.116Z,73.04
2018-01-12T10:22:00.131Z,72.79
2018-01-12T10:23:00.147Z,72.99
2018-01-12T10:24:00.168Z,72.6
2018-01-12T10:24:59.931Z,72.03
2018-01-12T10:25:59.947Z,72.7
2018-01-12T10:26:59.963Z,71.97
2018-01-12T10:28:00.233Z,70.2
2018-01-12T10:29:00.253Z,68.68
2018-01-12T10:30:00.024Z,67.1
2018-01-12T10:31:00.055Z,65.67
2018-01-12T10:32:00.055Z,65
2018-01-12T10:33:00.323Z,65.38
2018-01-12T10:34:00.344Z,65.38
2018-01-12T10:35:00.111Z,65.29
2018-01-12T10:36:00.421Z,64.81
2018-01-12T10:37:00.148Z,64.53
2018-01-12T10:38:00.220Z,64.05
2018-01-12T10:39:00.436Z,63.04
2018-01-12T10:40:00.459Z,62.46
2018-01-12T10:41:00.473Z,63.76
2018-01-12T10:42:00.493Z,63.51
2018-01-12T10:43:00.513Z,62.56
2018-01-12T10:44:00.282Z,63.13
2018-01-12T10:45:00.553Z,62.18
2018-01-12T10:46:00.574Z,62.46
2018-01-12T10:47:00.357Z,62.37
2018-01-12T10:48:00.362Z,61.54
2018-01-12T10:49:00.395Z,59.83
2018-01-12T10:50:00.400Z,58.69
2018-01-12T10:51:00.425Z,58.02
2018-01-12T10:52:00.694Z,58.97
2018-01-12T10:53:00.766Z,58.3
2018-01-12T10:54:00.737Z,58.78
2018-01-12T10:55:00.506Z,58.78
2018-01-12T10:56:00.526Z,58.02
2018-01-12T10:57:00.797Z,57.92
2018-01-12T10:58:00.816Z,57.67
2018-01-12T10:59:00.590Z,57.76
2018-01-12T11:00:00.606Z,57.76
2018-01-12T11:01:00.880Z,58.02
2018-01-12T11:02:00.652Z,58.02
2018-01-12T11:03:00.925Z,58.02
2018-01-12T11:04:00.942Z,57
2018-01-12T11:05:00.711Z,56.43
2018-01-12T11:06:00.733Z,56.97
2018-01-12T11:07:00.754Z,56.33
2018-01-12T11:08:00.824Z,55.76
2018-01-12T11:09:01.052Z,56.04
2018-01-12T11:10:01.069Z,56.71
2018-01-12T11:11:01.085Z,57.16
2018-01-12T11:12:00.854Z,57
2018-01-12T11:13:00.875Z,57.16
2018-01-12T11:14:00.918Z,58.18
2018-01-12T11:15:01.168Z,58.37
2018-01-12T11:16:01.187Z,58.37
2018-01-12T11:17:01.209Z,58.28
2018-01-12T11:18:01.228Z,58.84
2018-01-12T11:19:00.998Z,58.75
2018-01-12T11:20:01.269Z,58.84
2018-01-12T11:21:01.035Z,58.75
2018-01-12T11:22:01.307Z,59.23
2018-01-12T11:23:01.378Z,60.72
2018-01-12T11:24:01.094Z,61.29
2018-01-12T11:25:01.363Z,60.91
2018-01-12T11:26:01.384Z,62.15
2018-01-12T11:27:01.402Z,61
2018-01-12T11:28:01.428Z,61
2018-01-12T11:29:01.458Z,59.89
2018-01-12T11:30:01.211Z,60.18
2018-01-12T11:31:01.231Z,59.23
2018-01-12T11:32:01.503Z,58.84
2018-01-12T11:33:01.572Z,58.97
2018-01-12T11:34:01.538Z,58.11
2018-01-12T11:35:01.308Z,58.59
2018-01-12T11:36:01.328Z,57
2018-01-12T11:37:01.598Z,56.33
2018-01-12T11:38:01.421Z,56.33
2018-01-12T11:39:01.650Z,56.71
2018-01-12T11:40:01.660Z,56.33
2018-01-12T11:41:01.425Z,55.95
2018-01-12T11:42:01.702Z,56.52
2018-01-12T11:43:01.722Z,56.68
2018-01-12T11:44:01.741Z,57.64
2018-01-12T11:45:01.509Z,57.28
2018-01-12T11:46:01.780Z,56.62
2018-01-12T11:47:01.800Z,56.52
2018-01-12T11:48:01.822Z,56.24
2018-01-12T11:49:01.849Z,55.47
2018-01-12T11:50:01.615Z,55.31
2018-01-12T11:51:01.633Z,54.07
2018-01-12T11:52:01.910Z,53.21
2018-01-12T11:53:01.976Z,53.21
2018-01-12T11:54:01.953Z,52.86
2018-01-12T11:55:01.974Z,51.9
2018-01-12T11:56:01.743Z,51.52
2018-01-12T11:57:02.017Z,51.07
2018-01-12T11:58:02.039Z,49.66
2018-01-12T11:59:02.059Z,49.18
2018-01-12T12:00:02.089Z,48.71
2018-01-12T12:01:02.116Z,47.97
2018-01-12T12:02:01.881Z,48.16
2018-01-12T12:03:02.154Z,47.3
2018-01-12T12:04:02.176Z,47.3
2018-01-12T12:05:02.203Z,47.49
2018-01-12T12:06:01.972Z,47.13
2018-01-12T12:07:02.250Z,47.58
2018-01-12T12:08:02.320Z,46.37
2018-01-12T12:09:02.043Z,45.34
2018-01-12T12:10:02.346Z,44.79
2018-01-12T12:11:02.349Z,42.6
2018-01-12T12:12:02.381Z,41.48
2018-01-12T12:13:02.414Z,40.9
2018-01-12T12:14:02.180Z,40.81
2018-01-12T12:15:02.476Z,40.61
2018-01-12T12:16:02.477Z,41
2018-01-12T12:17:02.248Z,40.23
2018-01-12T12:18:02.526Z,40.06
2018-01-12T12:19:02.299Z,40.23
2018-01-12T12:20:02.579Z,40.98
2018-01-12T12:21:02.347Z,41.65
2018-01-12T12:22:02.628Z,42.2
2018-01-12T12:23:02.451Z,43.71
2018-01-12T12:24:02.672Z,43.71
2018-01-12T12:25:02.699Z,43.8
2018-01-12T12:26:02.467Z,45.12
2018-01-12T12:27:02.745Z,45.48
2018-01-12T12:28:02.517Z,46.25
2018-01-12T12:29:02.788Z,45.96
2018-01-12T12:30:02.566Z,46.44
2018-01-12T12:31:02.835Z,47.01
2018-01-12T12:32:02.857Z,47.47
2018-01-12T12:33:02.629Z,47.27
2018-01-12T12:34:02.908Z,48.13
2018-01-12T12:35:02.931Z,47.92
2018-01-12T12:36:02.948Z,48.3
2018-01-12T12:37:02.722Z,48.88
2018-01-12T12:38:02.791Z,48.97
2018-01-12T12:39:02.764Z,48.97
2018-01-12T12:40:03.034Z,48.97
2018-01-12T12:41:03.069Z,49.35
2018-01-12T12:42:02.828Z,49.35
2018-01-12T12:43:02.949Z,48.88
2018-01-12T12:44:02.871Z,49.35
2018-01-12T12:45:02.892Z,48.88
2018-01-12T12:46:03.185Z,48.21
2018-01-12T12:47:03.188Z,48.39
2018-01-12T12:48:03.219Z,48.42
2018-01-12T12:49:03.236Z,48.59
2018-01-12T12:50:03.256Z,49.07
2018-01-12T12:51:03.287Z,48.97
2018-01-12T12:52:03.304Z,49.16
2018-01-12T12:53:03.120Z,49.44
2018-01-12T12:54:03.093Z,50.18
2018-01-12T12:55:03.121Z,50.38
2018-01-12T12:56:03.139Z,50.47